createdAt,value
2022-11-07T00:01:56.428Z,9.21
2022-11-07T00:06:57.785Z,9.30
2022-11-07T00:11:58.997Z,9.26
2022-11-07T00:17:00.286Z,9.36
2022-11-07T00:22:01.546Z,9.34
2022-11-07T00:27:03.019Z,9.28
2022-11-07T00:32:04.262Z,9.37
2022-11-07T00:37:05.528Z,9.29
2022-11-07T00:42:06.878Z,9.35
2022-11-07T00:47:08.105Z,9.45
2022-11-07T00:52:09.334Z,9.36
2022-11-07T00:57:10.975Z,9.33
2022-11-07T01:02:12.304Z,9.19
2022-11-07T01:07:13.577Z,9.20
2022-11-07T01:12:14.820Z,9.14
2022-11-07T01:17:16.058Z,9.03
2022-11-07T01:22:17.308Z,8.98
2022-11-07T01:27:18.657Z,8.98
2022-11-07T01:32:20.050Z,9.10
2022-11-07T01:37:21.324Z,9.08
2022-11-07T01:42:22.573Z,9.23
2022-11-07T01:47:23.810Z,9.32
2022-11-07T01:52:25.052Z,9.34
2022-11-07T01:57:26.253Z,9.28
2022-11-07T02:02:27.648Z,9.49
2022-11-07T02:07:29.053Z,9.34
2022-11-07T02:12:30.305Z,9.40
2022-11-07T02:17:31.532Z,9.60
2022-11-07T02:22:32.758Z,9.70
2022-11-07T02:27:34.051Z,9.73
2022-11-07T02:32:35.275Z,9.36
2022-11-07T02:37:36.487Z,9.66
2022-11-07T02:42:43.759Z,9.82
2022-11-07T02:47:44.976Z,9.85
2022-11-07T02:52:46.192Z,9.76
2022-11-07T02:57:47.473Z,9.83
2022-11-07T03:02:49.153Z,9.90
2022-11-07T03:07:50.453Z,10.01
2022-11-07T03:12:51.668Z,9.86
2022-11-07T03:17:52.884Z,9.79
2022-11-07T03:22:54.110Z,9.87
2022-11-07T03:27:55.341Z,9.91
2022-11-07T03:32:56.556Z,9.83
2022-11-07T03:37:57.768Z,9.78
2022-11-07T03:42:58.990Z,9.69
2022-11-07T03:48:00.194Z,9.66
2022-11-07T03:53:01.408Z,9.65
2022-11-07T03:58:02.693Z,9.56
2022-11-07T04:03:04.554Z,9.24
2022-11-07T04:08:05.938Z,9.45
2022-11-07T04:13:25.903Z,9.52
2022-11-07T04:18:27.166Z,9.44
2022-11-07T04:23:28.416Z,9.30
2022-11-07T04:28:29.621Z,9.37
2022-11-07T04:33:30.864Z,9.35
2022-11-07T04:38:32.083Z,9.38
2022-11-07T04:43:33.280Z,9.27
2022-11-07T04:48:34.501Z,9.10
2022-11-07T04:53:35.732Z,9.07
2022-11-07T04:58:36.993Z,9.04
2022-11-07T05:03:41.745Z,8.94
2022-11-07T05:08:43.607Z,8.96
2022-11-07T05:13:44.856Z,8.87
2022-11-07T05:18:46.078Z,8.90
2022-11-07T05:23:47.277Z,8.95
2022-11-07T05:28:48.528Z,9.05
2022-11-07T05:33:49.751Z,8.84
2022-11-07T05:38:50.996Z,8.80
2022-11-07T05:43:52.221Z,8.99
2022-11-07T05:48:56.676Z,8.85
2022-11-07T05:54:01.976Z,8.71
2022-11-07T05:59:03.268Z,8.42
2022-11-07T06:04:04.541Z,8.62
2022-11-07T06:09:06.160Z,8.55
2022-11-07T06:14:07.363Z,8.49
2022-11-07T06:19:08.600Z,8.41
2022-11-07T06:24:14.845Z,8.29
2022-11-07T06:29:16.655Z,8.27
2022-11-07T06:34:17.870Z,8.28
2022-11-07T06:39:19.083Z,8.17
2022-11-07T06:44:20.381Z,8.07
2022-11-07T06:49:21.597Z,8.06
2022-11-07T06:54:22.816Z,8.20
2022-11-07T06:59:24.063Z,8.32
2022-11-07T07:04:25.281Z,8.32
2022-11-07T07:09:26.485Z,8.19
2022-11-07T07:14:27.765Z,8.58
2022-11-07T07:19:28.997Z,8.68
2022-11-07T07:24:30.205Z,8.78
2022-11-07T07:29:31.412Z,8.03
2022-11-07T07:34:32.682Z,8.27
2022-11-07T07:39:33.969Z,7.81
2022-11-07T07:44:36.220Z,7.48
2022-11-07T07:49:37.453Z,7.89
2022-11-07T07:54:38.658Z,8.39
2022-11-07T07:59:39.901Z,8.21
2022-11-07T08:04:41.110Z,8.31
2022-11-07T08:09:42.347Z,8.50
2022-11-07T08:20:09.592Z,9.03
2022-11-07T08:25:10.802Z,8.89
2022-11-07T08:30:18.239Z,9.41
2022-11-07T08:35:19.597Z,9.53
2022-11-07T08:40:20.808Z,9.42
2022-11-07T08:45:22.006Z,9.84
2022-11-07T08:50:23.214Z,10.14
2022-11-07T08:55:24.420Z,10.16
2022-11-07T09:00:25.699Z,10.32
2022-11-07T09:05:26.908Z,10.27
2022-11-07T09:10:28.127Z,10.45
2022-11-07T09:15:29.334Z,10.55
2022-11-07T09:20:30.561Z,10.88
2022-11-07T09:25:31.820Z,11.17
2022-11-07T09:30:33.171Z,10.99
2022-11-07T09:35:34.632Z,11.01
2022-11-07T09:40:40.215Z,11.11
2022-11-07T09:45:41.450Z,11.40
2022-11-07T09:50:42.656Z,12.35
2022-11-07T09:55:44.534Z,12.21
2022-11-07T10:00:45.826Z,11.93
2022-11-07T10:05:47.130Z,11.98
2022-11-07T10:10:48.332Z,12.31
2022-11-07T10:15:49.523Z,12.43
2022-11-07T10:20:50.719Z,12.75
2022-11-07T10:25:51.935Z,12.92
2022-11-07T10:30:53.161Z,13.02
2022-11-07T10:35:54.954Z,13.24
2022-11-07T10:40:56.190Z,13.60
2022-11-07T10:45:57.393Z,13.86
2022-11-07T10:50:58.642Z,14.13
2022-11-07T10:55:59.933Z,13.99
2022-11-07T11:01:01.246Z,14.11
2022-11-07T11:06:02.490Z,14.56
2022-11-07T11:11:03.700Z,14.97
2022-11-07T11:16:05.910Z,15.22
2022-11-07T11:21:07.777Z,15.56
2022-11-07T11:26:08.980Z,15.62
2022-11-07T11:31:10.206Z,15.91
2022-11-07T11:36:12.037Z,16.19
2022-11-07T11:41:13.255Z,16.12
2022-11-07T11:46:14.469Z,16.22
2022-11-07T11:51:15.685Z,16.72
2022-11-07T11:56:17.592Z,16.81
2022-11-07T12:01:18.818Z,17.05
2022-11-07T12:06:20.156Z,17.30
2022-11-07T12:11:21.396Z,17.30
2022-11-07T12:16:22.661Z,17.57
2022-11-07T12:21:23.977Z,17.61
2022-11-07T12:26:25.226Z,16.87
2022-11-07T12:31:26.454Z,16.85
2022-11-07T12:36:27.708Z,17.11
2022-11-07T12:41:28.953Z,17.79
2022-11-07T12:46:30.189Z,17.71
2022-11-07T12:51:31.879Z,17.66
2022-11-07T12:56:33.127Z,17.64
2022-11-07T13:01:34.447Z,17.15
2022-11-07T13:06:35.920Z,17.17
2022-11-07T13:11:37.333Z,17.68
2022-11-07T13:16:38.585Z,18.00
2022-11-07T13:21:39.824Z,17.40
2022-11-07T13:26:48.531Z,17.50
2022-11-07T13:31:49.801Z,17.63
2022-11-07T13:36:51.095Z,17.63
2022-11-07T13:41:52.311Z,17.65
2022-11-07T13:46:53.514Z,17.09
2022-11-07T13:51:56.676Z,16.53
2022-11-07T13:56:57.975Z,16.23
2022-11-07T14:01:59.298Z,16.17
2022-11-07T14:07:00.650Z,15.62
2022-11-07T14:12:01.958Z,15.69
2022-11-07T14:17:03.221Z,15.77
2022-11-07T14:22:04.441Z,15.80
2022-11-07T14:27:05.761Z,15.74
2022-11-07T14:32:07.246Z,15.79
2022-11-07T14:37:08.629Z,15.57
2022-11-07T14:42:10.250Z,15.66
2022-11-07T14:47:11.576Z,16.59
2022-11-07T14:52:16.502Z,16.05
2022-11-07T14:57:18.122Z,15.83
2022-11-07T15:02:19.615Z,15.61
2022-11-07T15:07:20.969Z,15.64
2022-11-07T15:12:22.388Z,15.44
2022-11-07T15:17:23.780Z,16.32
2022-11-07T15:22:25.106Z,16.53
2022-11-07T15:27:27.842Z,15.81
2022-11-07T15:32:29.196Z,15.36
2022-11-07T15:37:30.578Z,15.04
2022-11-07T15:42:31.837Z,14.95
2022-11-07T15:47:33.101Z,14.76
2022-11-07T15:52:34.384Z,14.53
2022-11-07T15:57:35.666Z,14.29
2022-11-07T16:02:37.143Z,13.97
2022-11-07T16:07:38.566Z,14.06
2022-11-07T16:12:39.832Z,13.88
2022-11-07T16:17:41.137Z,13.67
2022-11-07T16:22:42.464Z,13.64
2022-11-07T16:27:44.160Z,13.70
2022-11-07T16:32:45.580Z,13.59
2022-11-07T16:37:46.810Z,13.16
2022-11-07T16:42:48.157Z,13.07
2022-11-07T16:47:49.408Z,13.07
2022-11-07T16:52:50.651Z,12.83
2022-11-07T16:57:52.063Z,12.74
2022-11-07T17:02:53.517Z,12.55
2022-11-07T17:07:55.772Z,12.25
2022-11-07T17:12:57.196Z,11.97
2022-11-07T17:18:01.360Z,11.80
2022-11-07T17:23:04.700Z,11.89
2022-11-07T17:28:06.022Z,11.85
2022-11-07T17:33:07.355Z,11.77
2022-11-07T17:38:08.639Z,11.97
2022-11-07T17:43:10.025Z,11.99
2022-11-07T17:48:11.289Z,11.76
2022-11-07T17:53:12.521Z,11.53
2022-11-07T17:58:13.881Z,11.46
2022-11-07T18:03:15.276Z,11.39
2022-11-07T18:08:31.285Z,11.42
2022-11-07T18:13:37.717Z,11.55
2022-11-07T18:18:38.973Z,11.52
2022-11-07T18:23:40.214Z,11.40
2022-11-07T18:28:44.273Z,11.27
2022-11-07T18:33:46.356Z,11.08
2022-11-07T18:38:47.592Z,11.04
2022-11-07T18:43:48.859Z,10.82
2022-11-07T18:48:50.794Z,11.08
2022-11-07T18:53:52.087Z,11.21
2022-11-07T18:58:53.301Z,11.01
2022-11-07T19:03:54.563Z,11.10
2022-11-07T19:08:55.839Z,10.83
2022-11-07T19:13:57.045Z,10.91
2022-11-07T19:18:58.257Z,10.71
2022-11-07T19:23:59.493Z,10.77
2022-11-07T19:29:02.334Z,11.02
2022-11-07T19:34:03.824Z,10.85
2022-11-07T19:39:05.152Z,10.63
2022-11-07T19:44:07.110Z,10.54
2022-11-07T19:49:08.408Z,10.34
2022-11-07T19:54:10.103Z,10.36
2022-11-07T19:59:11.527Z,10.11
2022-11-07T20:04:12.781Z,10.15
2022-11-07T20:09:13.994Z,10.15
2022-11-07T20:14:15.278Z,10.09
2022-11-07T20:19:16.765Z,10.19
2022-11-07T20:24:17.964Z,10.19
2022-11-07T20:29:19.236Z,10.00
2022-11-07T20:34:20.529Z,9.85
2022-11-07T20:39:21.807Z,9.78
2022-11-07T20:44:23.512Z,9.60
2022-11-07T20:49:25.061Z,9.55
2022-11-07T20:54:28.473Z,9.58
2022-11-07T20:59:31.392Z,9.38
2022-11-07T21:04:49.869Z,9.59
2022-11-07T21:09:54.523Z,9.67
2022-11-07T21:14:55.746Z,9.62
2022-11-07T21:19:57.044Z,9.53
2022-11-07T21:24:58.540Z,9.46
2022-11-07T21:29:59.763Z,9.46
2022-11-07T21:35:01.152Z,9.44
2022-11-07T21:40:02.420Z,9.33
2022-11-07T21:45:03.708Z,9.40
2022-11-07T21:50:23.921Z,9.26
2022-11-07T21:55:26.138Z,9.22
2022-11-07T22:00:29.429Z,9.07
2022-11-07T22:05:34.344Z,8.79
2022-11-07T22:10:35.615Z,8.53
2022-11-07T22:15:36.883Z,8.66
2022-11-07T22:20:38.104Z,8.75
2022-11-07T22:25:39.377Z,8.49
2022-11-07T22:30:40.634Z,8.65
2022-11-07T22:35:41.964Z,8.60
2022-11-07T22:40:43.456Z,8.74
2022-11-07T22:45:44.694Z,8.41
2022-11-07T22:50:45.979Z,8.36
2022-11-07T22:55:47.189Z,8.45
2022-11-07T23:00:48.418Z,8.29
2022-11-07T23:05:49.630Z,8.38
2022-11-07T23:10:52.304Z,8.42
2022-11-07T23:16:00.974Z,8.20
2022-11-07T23:21:11.406Z,7.94
2022-11-07T23:26:12.694Z,7.85
2022-11-07T23:31:13.891Z,8.06
2022-11-07T23:36:15.105Z,7.98
2022-11-07T23:41:16.328Z,7.91
2022-11-07T23:46:36.440Z,7.61
2022-11-07T23:51:37.745Z,7.63
2022-11-07T23:56:38.967Z,7.91
